Time;durP1;ratioP1;P1;durP2;ratioP2;P2;SDS_P1;SDS_P2;PMS_P1;PMS_P2;Temp;Humidity;BMP_temperature;BMP_pressure;BME280_temperature;BME280_humidity;BME280_pressure;Samples;Min_cycle;Max_cycle;Signal;HPM_P1;HPM_P2
2021/04/23 00:01:43;;;;;;;11.60;4.13;;;6.40;97.40;;;;;;5057871;28;20073;-85
2021/04/23 00:04:09;;;;;;;9.30;4.25;;;6.30;97.60;;;;;;5057398;28;20039;-84
2021/04/23 00:06:45;;;;;;;10.73;4.60;;;6.30;98.80;;;;;;5057541;28;20450;-85
2021/04/23 00:09:24;;;;;;;8.38;4.40;;;6.00;98.90;;;;;;5057225;28;20476;-84
2021/04/23 00:12:04;;;;;;;11.40;4.40;;;5.90;99.90;;;;;;5057816;28;20021;-86
2021/04/23 00:14:34;;;;;;;10.55;4.50;;;5.70;99.90;;;;;;5057466;28;20052;-83
2021/04/23 00:17:00;;;;;;;10.93;4.40;;;5.70;99.90;;;;;;5057715;28;20044;-84
2021/04/23 00:19:27;;;;;;;10.15;4.32;;;5.50;99.90;;;;;;5057586;28;20135;-84
2021/04/23 00:21:55;;;;;;;9.57;4.07;;;5.50;99.90;;;;;;5057247;28;20040;-84
2021/04/23 00:24:22;;;;;;;10.18;5.10;;;5.40;99.90;;;;;;5059404;28;20559;-81
2021/04/23 00:26:48;;;;;;;11.73;4.55;;;5.50;99.90;;;;;;5056200;28;20464;-84
2021/04/23 00:29:14;;;;;;;11.18;4.20;;;5.40;99.90;;;;;;5057673;28;20586;-81
2021/04/23 00:34:26;;;;;;;;;;;5.40;99.90;;;;;;5058067;28;20090;-80
2021/04/23 00:36:52;;;;;;;9.45;4.32;;;5.30;99.90;;;;;;5057673;28;19908;-84
2021/04/23 00:39:18;;;;;;;13.45;5.50;;;5.20;99.90;;;;;;5055747;28;20028;-84
2021/04/23 00:41:44;;;;;;;9.13;4.55;;;5.10;99.90;;;;;;5055721;28;20037;-82
2021/04/23 00:44:09;;;;;;;10.95;4.20;;;4.90;99.90;;;;;;5057241;28;20029;-83
2021/04/23 00:46:37;;;;;;;9.02;4.30;;;4.80;99.90;;;;;;5055641;28;20079;-84
2021/04/23 00:49:04;;;;;;;14.73;4.63;;;4.70;99.90;;;;;;5055746;28;20025;-83
2021/04/23 00:51:34;;;;;;;8.00;4.13;;;4.60;99.90;;;;;;5056201;28;20040;-81
2021/04/23 00:54:01;;;;;;;12.07;4.85;;;4.40;99.90;;;;;;5054232;28;20138;-80
2021/04/23 00:56:30;;;;;;;14.63;4.45;;;4.30;99.90;;;;;;5055665;28;20111;-81
2021/04/23 00:58:57;;;;;;;10.65;4.18;;;4.50;99.90;;;;;;5054148;28;20108;-81
2021/04/23 01:01:47;;;;;;;10.65;4.90;;;4.20;99.90;;;;;;5054571;28;20053;-80
2021/04/23 01:04:14;;;;;;;12.23;4.45;;;4.20;99.90;;;;;;5054136;28;20064;-80
2021/04/23 01:06:40;;;;;;;9.00;4.22;;;4.20;99.90;;;;;;5054355;28;20021;-81
2021/04/23 01:09:20;;;;;;;10.38;4.72;;;4.20;99.90;;;;;;5055237;28;20044;-82
2021/04/23 01:11:48;;;;;;;8.70;4.45;;;4.20;99.90;;;;;;5054861;28;20025;-82
2021/04/23 01:14:15;;;;;;;11.32;4.25;;;4.10;99.90;;;;;;5054916;28;20380;-82
2021/04/23 01:16:41;;;;;;;10.93;4.90;;;4.10;99.90;;;;;;5055011;28;20095;-81
2021/04/23 01:19:10;;;;;;;14.23;5.00;;;4.20;99.90;;;;;;5054892;28;20028;-82
2021/04/23 01:21:37;;;;;;;11.57;4.90;;;4.20;99.90;;;;;;5055016;28;20029;-82
2021/04/23 01:24:05;;;;;;;12.68;5.40;;;4.20;99.90;;;;;;5054401;28;20024;-81
2021/04/23 01:26:37;;;;;;;13.35;4.82;;;4.20;99.90;;;;;;5053845;28;20035;-81
2021/04/23 01:29:06;;;;;;;11.70;4.93;;;4.20;99.90;;;;;;5055558;28;20025;-80
2021/04/23 01:31:37;;;;;;;10.35;4.82;;;4.30;99.90;;;;;;5054393;28;20033;-81
2021/04/23 01:34:23;;;;;;;14.45;5.93;;;4.20;99.90;;;;;;5055475;28;20021;-83
2021/04/23 01:36:51;;;;;;;12.63;5.10;;;4.20;99.90;;;;;;5054581;28;20381;-80
2021/04/23 01:39:23;;;;;;;9.95;4.50;;;4.10;99.90;;;;;;5054377;28;20029;-83
2021/04/23 01:41:51;;;;;;;10.95;4.90;;;4.10;99.90;;;;;;5054352;28;20033;-81
2021/04/23 01:44:17;;;;;;;11.55;5.13;;;4.00;99.90;;;;;;5054073;28;20032;-81
2021/04/23 01:46:43;;;;;;;10.43;4.40;;;3.90;99.90;;;;;;5054057;28;20059;-83
2021/04/23 01:49:12;;;;;;;8.93;4.75;;;3.90;99.90;;;;;;5055768;28;20469;-81
2021/04/23 01:51:41;;;;;;;8.35;4.68;;;3.90;99.90;;;;;;5054460;28;20034;-80
2021/04/23 01:54:08;;;;;;;8.55;5.05;;;3.90;99.90;;;;;;5054096;28;20021;-81
2021/04/23 01:56:34;;;;;;;11.43;5.43;;;3.90;99.90;;;;;;5054410;28;20025;-81
2021/04/23 01:58:59;;;;;;;11.02;5.63;;;3.90;99.90;;;;;;5055708;28;20078;-80
2021/04/23 02:01:25;;;;;;;12.65;5.63;;;3.90;99.90;;;;;;5054436;28;20048;-80
2021/04/23 02:03:51;;;;;;;12.40;5.38;;;3.90;99.90;;;;;;5054296;28;20083;-81
2021/04/23 02:06:17;;;;;;;10.75;4.68;;;3.90;99.90;;;;;;5055579;28;20013;-83
2021/04/23 02:08:43;;;;;;;9.50;5.22;;;4.00;99.90;;;;;;5054207;28;20031;-81
2021/04/23 02:11:15;;;;;;;12.40;5.18;;;3.90;99.90;;;;;;5054511;28;20017;-82
2021/04/23 02:13:43;;;;;;;10.98;5.18;;;3.80;99.90;;;;;;5055886;28;20025;-83
2021/04/23 02:16:10;;;;;;;11.85;5.60;;;3.90;99.90;;;;;;5055455;28;20112;-82
2021/04/23 02:18:36;;;;;;;9.27;4.97;;;3.90;99.90;;;;;;5054129;28;20039;-81
2021/04/23 02:21:03;;;;;;;14.00;4.78;;;3.80;99.90;;;;;;5054170;28;20120;-81
2021/04/23 02:23:29;;;;;;;12.73;5.40;;;3.70;99.90;;;;;;5054186;28;20037;-81
2021/04/23 02:25:55;;;;;;;14.27;5.05;;;3.70;99.90;;;;;;5054209;28;20055;-82
2021/04/23 02:28:22;;;;;;;9.07;5.00;;;3.70;99.90;;;;;;5054533;28;20536;-81
2021/04/23 02:30:55;;;;;;;11.63;5.55;;;3.80;99.90;;;;;;5053826;28;20021;-81
2021/04/23 02:33:23;;;;;;;16.35;4.88;;;3.70;99.90;;;;;;5053903;28;20033;-81
2021/04/23 02:35:50;;;;;;;10.05;4.97;;;3.70;99.90;;;;;;5053983;28;20029;-81
2021/04/23 02:38:16;;;;;;;10.05;4.95;;;3.80;99.90;;;;;;5054358;28;20427;-83
2021/04/23 02:40:43;;;;;;;9.85;4.63;;;3.80;99.90;;;;;;5053744;28;20036;-81
2021/04/23 02:43:12;;;;;;;14.45;5.03;;;3.70;99.90;;;;;;5053603;28;20033;-80
2021/04/23 02:45:40;;;;;;;12.70;5.38;;;3.70;99.90;;;;;;5053260;28;20056;-82
2021/04/23 02:48:07;;;;;;;10.35;5.40;;;3.70;99.90;;;;;;5053890;28;20464;-80
2021/04/23 02:50:33;;;;;;;9.75;4.70;;;3.50;99.90;;;;;;5053775;28;20063;-82
2021/04/23 02:53:00;;;;;;;11.65;4.80;;;3.50;99.90;;;;;;5053568;28;20033;-82
2021/04/23 02:55:25;;;;;;;10.73;4.80;;;3.40;99.90;;;;;;5053791;28;20029;-81
2021/04/23 02:57:56;;;;;;;12.23;4.90;;;3.30;99.90;;;;;;5053818;28;20380;-82
2021/04/23 03:00:24;;;;;;;8.65;4.32;;;3.30;99.90;;;;;;5053641;28;20032;-81
2021/04/23 03:02:49;;;;;;;10.30;5.47;;;3.30;99.90;;;;;;5054625;28;20394;-85
2021/04/23 03:05:16;;;;;;;11.30;4.20;;;3.20;99.90;;;;;;5053872;28;20060;-83
2021/04/23 03:07:41;;;;;;;7.50;4.00;;;3.10;99.90;;;;;;5053746;28;20032;-81
2021/04/23 03:10:09;;;;;;;8.60;4.28;;;3.20;99.90;;;;;;5053523;28;20025;-81
2021/04/23 03:12:35;;;;;;;11.00;4.72;;;3.30;99.90;;;;;;5053346;28;20021;-82
2021/04/23 03:15:00;;;;;;;11.48;4.05;;;3.20;99.90;;;;;;5052675;28;20464;-81
2021/04/23 03:17:26;;;;;;;12.10;4.65;;;3.20;99.90;;;;;;5052403;28;20021;-80
2021/04/23 03:19:52;;;;;;;9.82;4.15;;;3.20;99.90;;;;;;5052753;28;20029;-82
2021/04/23 03:22:18;;;;;;;10.27;4.85;;;3.10;99.90;;;;;;5052805;28;20082;-80
2021/04/23 03:24:43;;;;;;;9.68;4.45;;;3.20;99.90;;;;;;5053024;28;20026;-82
2021/04/23 03:27:09;;;;;;;9.63;3.83;;;3.20;99.90;;;;;;5052464;28;20044;-81
2021/04/23 03:29:35;;;;;;;12.98;4.50;;;3.10;99.90;;;;;;5052785;28;20025;-80
2021/04/23 03:32:00;;;;;;;8.95;3.83;;;3.10;99.90;;;;;;5052626;28;20100;-80
2021/04/23 03:34:26;;;;;;;8.13;3.70;;;3.00;99.90;;;;;;5052586;28;20029;-80
2021/04/23 03:36:51;;;;;;;10.80;4.38;;;3.00;99.90;;;;;;5052725;28;20032;-81
2021/04/23 03:39:17;;;;;;;10.40;4.30;;;3.10;99.90;;;;;;5052373;28;20021;-83
2021/04/23 03:41:43;;;;;;;9.77;4.68;;;3.00;99.90;;;;;;5052487;28;20067;-84
2021/04/23 03:44:10;;;;;;;9.55;4.03;;;3.00;99.90;;;;;;5053174;28;20468;-83
2021/04/23 03:46:36;;;;;;;9.20;4.40;;;2.80;99.90;;;;;;5053971;28;20031;-81
2021/04/23 03:49:02;;;;;;;11.07;3.72;;;2.70;99.90;;;;;;5052553;28;20052;-83
2021/04/23 03:51:28;;;;;;;10.48;3.47;;;2.60;99.90;;;;;;5052461;28;20116;-81
2021/04/23 03:53:54;;;;;;;8.90;3.88;;;2.60;99.90;;;;;;5052741;28;20084;-79
2021/04/23 03:56:21;;;;;;;7.72;4.00;;;2.60;99.90;;;;;;5052466;28;20361;-79
2021/04/23 03:58:49;;;;;;;9.00;3.80;;;2.50;99.90;;;;;;5052056;28;20087;-80
2021/04/23 04:01:22;;;;;;;14.52;9.40;;;2.50;99.90;;;;;;5053439;28;20029;-79
2021/04/23 04:03:49;;;;;;;23.75;12.70;;;3.70;99.90;;;;;;5052211;28;20052;-79
2021/04/23 04:06:15;;;;;;;16.08;8.13;;;3.30;99.90;;;;;;5052438;28;20059;-80
2021/04/23 04:08:41;;;;;;;14.75;5.60;;;3.10;99.90;;;;;;5055729;28;20037;-81
2021/04/23 04:11:07;;;;;;;27.85;14.93;;;3.00;99.90;;;;;;5052234;28;20029;-80
2021/04/23 04:13:33;;;;;;;19.98;9.80;;;2.90;99.90;;;;;;5051620;28;20048;-80
2021/04/23 04:16:00;;;;;;;13.98;7.40;;;2.70;99.90;;;;;;5052103;28;20491;-80
2021/04/23 04:18:26;;;;;;;9.85;7.03;;;2.60;99.90;;;;;;5052082;28;20389;-80
2021/04/23 04:20:51;;;;;;;15.48;6.40;;;2.60;99.90;;;;;;5052701;28;20513;-80
2021/04/23 04:23:19;;;;;;;14.52;6.22;;;2.60;99.90;;;;;;5053159;28;20029;-79
2021/04/23 04:25:57;;;;;;;20.02;8.50;;;2.60;99.90;;;;;;5052067;28;20535;-80
2021/04/23 04:28:24;;;;;;;22.00;13.05;;;2.60;99.90;;;;;;5053670;28;20025;-80
2021/04/23 04:30:51;;;;;;;18.17;7.18;;;2.60;99.90;;;;;;5056009;28;20021;-79
2021/04/23 04:33:17;;;;;;;15.00;6.05;;;2.70;99.90;;;;;;5055332;28;20071;-80
2021/04/23 04:35:43;;;;;;;13.38;5.85;;;2.80;99.90;;;;;;5054950;28;20376;-80
2021/04/23 04:38:11;;;;;;;14.32;6.05;;;2.90;99.90;;;;;;5054484;28;20025;-79
2021/04/23 04:40:38;;;;;;;16.38;6.35;;;2.90;99.90;;;;;;5054872;28;20021;-79
2021/04/23 04:43:06;;;;;;;15.63;6.03;;;3.00;99.90;;;;;;5055036;28;20082;-81
2021/04/23 04:45:33;;;;;;;12.73;6.32;;;3.10;99.90;;;;;;5055114;28;20029;-79
2021/04/23 04:47:59;;;;;;;14.38;6.47;;;3.20;99.90;;;;;;5055171;28;20025;-81
2021/04/23 04:50:28;;;;;;;10.00;5.25;;;3.30;99.90;;;;;;5055084;28;20024;-79
2021/04/23 04:52:56;;;;;;;10.68;6.07;;;3.30;99.90;;;;;;5054855;28;20079;-79
2021/04/23 04:55:29;;;;;;;12.60;6.45;;;3.30;99.90;;;;;;5055102;28;20025;-82
2021/04/23 04:57:56;;;;;;;18.23;6.97;;;3.40;99.90;;;;;;5055266;28;20021;-81
2021/04/23 05:00:23;;;;;;;13.38;7.72;;;3.40;99.90;;;;;;5054835;28;20032;-81
2021/04/23 05:02:49;;;;;;;14.07;7.88;;;3.50;99.90;;;;;;5054525;28;20118;-81
2021/04/23 05:05:16;;;;;;;12.93;6.25;;;3.50;99.90;;;;;;5055370;28;20377;-83
2021/04/23 05:07:41;;;;;;;14.90;6.82;;;3.60;99.90;;;;;;5055231;28;20024;-83
2021/04/23 05:10:08;;;;;;;15.93;6.65;;;3.70;99.90;;;;;;5056648;28;20021;-83
2021/04/23 05:12:34;;;;;;;12.52;6.13;;;3.80;99.90;;;;;;5056372;28;20415;-84
2021/04/23 05:15:00;;;;;;;14.93;5.90;;;3.90;99.90;;;;;;5056250;28;20017;-84
2021/04/23 05:17:26;;;;;;;13.70;5.63;;;4.00;99.90;;;;;;5055524;28;20082;-87
2021/04/23 05:19:51;;;;;;;11.77;6.35;;;3.90;99.90;;;;;;5056025;28;20024;-84
2021/04/23 05:22:17;;;;;;;12.23;6.25;;;4.00;99.90;;;;;;5054916;28;20067;-82
2021/04/23 05:24:43;;;;;;;19.10;6.13;;;4.10;99.90;;;;;;5056079;28;20029;-83
2021/04/23 05:27:08;;;;;;;12.98;6.45;;;4.30;99.90;;;;;;5055968;28;20033;-82
2021/04/23 05:29:34;;;;;;;16.02;6.55;;;4.40;99.90;;;;;;5055405;28;20029;-86
2021/04/23 05:32:01;;;;;;;21.48;5.75;;;4.60;99.90;;;;;;5055762;28;20032;-84
2021/04/23 05:34:30;;;;;;;14.32;6.38;;;4.60;99.90;;;;;;5056920;28;20021;-82
2021/04/23 05:36:56;;;;;;;12.50;5.63;;;4.90;99.90;;;;;;5055395;28;20025;-83
2021/04/23 05:39:22;;;;;;;15.20;5.90;;;5.00;99.90;;;;;;5054516;28;20020;-84
2021/04/23 05:41:48;;;;;;;11.68;5.43;;;5.10;99.90;;;;;;5054821;28;20480;-83
2021/04/23 05:44:14;;;;;;;10.50;5.47;;;5.30;99.90;;;;;;5055011;28;20021;-83
2021/04/23 05:46:39;;;;;;;14.77;5.25;;;5.40;99.90;;;;;;5054502;28;20555;-82
2021/04/23 05:49:06;;;;;;;10.10;4.60;;;5.50;99.90;;;;;;5054806;28;20033;-83
2021/04/23 05:51:32;;;;;;;10.00;5.15;;;5.70;99.90;;;;;;5054931;28;20115;-86
2021/04/23 05:53:58;;;;;;;12.93;5.43;;;5.90;99.90;;;;;;5055027;28;20032;-87
2021/04/23 05:56:24;;;;;;;12.95;4.97;;;6.10;99.90;;;;;;5054744;28;20086;-85
2021/04/23 05:58:50;;;;;;;11.02;4.55;;;6.20;99.90;;;;;;5054438;28;20037;-84
2021/04/23 06:01:16;;;;;;;11.40;4.47;;;6.30;99.50;;;;;;5054430;28;20033;-84
2021/04/23 06:03:42;;;;;;;14.13;5.13;;;6.40;99.90;;;;;;5054254;28;20488;-84
2021/04/23 06:06:08;;;;;;;9.48;4.35;;;6.60;98.70;;;;;;5054116;28;20028;-85
2021/04/23 06:08:33;;;;;;;8.90;4.82;;;6.60;99.00;;;;;;5054285;28;20032;-85
2021/04/23 06:10:59;;;;;;;12.07;4.55;;;6.70;98.70;;;;;;5054161;28;20036;-83
2021/04/23 06:13:26;;;;;;;14.55;4.28;;;6.80;97.90;;;;;;5054182;28;20392;-85
2021/04/23 06:15:51;;;;;;;9.18;4.10;;;7.00;97.30;;;;;;5054176;28;20430;-84
2021/04/23 06:18:17;;;;;;;9.82;4.25;;;7.10;97.50;;;;;;5053895;28;20036;-82
2021/04/23 06:20:45;;;;;;;12.18;4.20;;;7.30;97.20;;;;;;5054355;28;20025;-82
2021/04/23 06:23:11;;;;;;;11.82;3.83;;;7.40;96.40;;;;;;5053142;28;20072;-82
2021/04/23 06:25:36;;;;;;;9.95;4.07;;;7.50;96.50;;;;;;5053503;28;20052;-83
2021/04/23 06:28:05;;;;;;;10.57;4.82;;;7.60;96.70;;;;;;5053157;28;20033;-85
2021/04/23 06:30:33;;;;;;;9.55;4.28;;;7.90;97.20;;;;;;5053188;28;20082;-86
2021/04/23 06:33:06;;;;;;;9.98;4.35;;;8.10;96.80;;;;;;5054301;28;20025;-83
2021/04/23 06:35:32;;;;;;;11.93;4.85;;;8.30;97.80;;;;;;5053983;28;20024;-79
2021/04/23 06:37:57;;;;;;;10.60;4.97;;;8.40;96.60;;;;;;5053160;28;20017;-82
2021/04/23 06:40:23;;;;;;;10.98;5.22;;;8.70;95.00;;;;;;5053317;28;20025;-82
2021/04/23 06:42:49;;;;;;;14.07;5.00;;;9.20;95.50;;;;;;5052729;28;20076;-83
2021/04/23 06:45:18;;;;;;;13.23;5.18;;;9.30;94.30;;;;;;5053641;28;20017;-83
2021/04/23 06:47:45;;;;;;;10.30;4.93;;;9.40;93.50;;;;;;5053168;28;20029;-85
2021/04/23 06:50:14;;;;;;;12.05;5.25;;;9.50;92.00;;;;;;5052696;28;20094;-85
2021/04/23 06:52:41;;;;;;;12.50;5.70;;;9.60;92.50;;;;;;5053483;28;20021;-85
2021/04/23 06:55:08;;;;;;;15.18;6.10;;;9.70;92.50;;;;;;5054257;28;20047;-84
2021/04/23 06:57:34;;;;;;;11.25;5.60;;;9.80;91.10;;;;;;5053206;28;20039;-82
2021/04/23 06:59:59;;;;;;;12.25;5.60;;;9.80;86.80;;;;;;5054049;28;20017;-82
2021/04/23 07:02:25;;;;;;;9.75;5.53;;;9.80;86.00;;;;;;5052928;28;20064;-84
2021/04/23 07:04:51;;;;;;;10.90;5.10;;;9.80;90.10;;;;;;5052835;28;20537;-82
2021/04/23 07:07:16;;;;;;;8.90;4.72;;;9.90;85.60;;;;;;5053410;28;20025;-87
2021/04/23 07:09:42;;;;;;;11.30;5.30;;;9.90;83.40;;;;;;5052089;28;20057;-85
2021/04/23 07:12:08;;;;;;;14.85;5.60;;;9.90;86.20;;;;;;5053602;28;20024;-81
2021/04/23 07:14:34;;;;;;;12.73;5.25;;;10.00;84.20;;;;;;5053448;28;20025;-85
2021/04/23 07:17:00;;;;;;;16.20;5.70;;;10.10;86.30;;;;;;5053507;28;20021;-83
2021/04/23 07:19:26;;;;;;;11.90;4.88;;;10.20;82.20;;;;;;5052986;28;20029;-82
2021/04/23 07:21:51;;;;;;;15.02;5.00;;;10.30;80.20;;;;;;5052933;28;20024;-82
2021/04/23 07:24:17;;;;;;;13.95;5.30;;;10.50;84.50;;;;;;5053930;28;20082;-85
2021/04/23 07:26:42;;;;;;;9.13;3.80;;;10.60;79.40;;;;;;5052732;28;20056;-83
2021/04/23 07:29:08;;;;;;;11.82;4.25;;;10.60;67.10;;;;;;5052663;28;20078;-83
2021/04/23 07:31:34;;;;;;;12.35;5.05;;;10.70;66.70;;;;;;5052737;28;20075;-82
2021/04/23 07:34:00;;;;;;;10.68;4.53;;;10.80;72.40;;;;;;5052861;28;20059;-82
2021/04/23 07:36:26;;;;;;;13.18;5.22;;;10.90;75.00;;;;;;5052208;28;20083;-82
2021/04/23 07:38:53;;;;;;;10.25;4.70;;;11.00;68.50;;;;;;5053888;28;20070;-85
2021/04/23 07:41:18;;;;;;;14.98;5.22;;;11.00;70.60;;;;;;5052737;28;20025;-83
2021/04/23 07:43:44;;;;;;;11.35;4.57;;;10.80;71.00;;;;;;5052573;28;20190;-82
2021/04/23 07:46:10;;;;;;;11.18;4.72;;;11.00;72.90;;;;;;5052697;28;20028;-82
2021/04/23 07:48:35;;;;;;;11.38;5.10;;;11.20;74.40;;;;;;5052356;28;20040;-82
2021/04/23 07:51:01;;;;;;;13.65;5.78;;;11.40;74.70;;;;;;5052429;28;20110;-87
2021/04/23 07:53:27;;;;;;;11.68;6.50;;;11.40;71.90;;;;;;5052494;28;20029;-82
2021/04/23 07:55:53;;;;;;;10.88;6.03;;;11.60;75.60;;;;;;5052588;28;20029;-83
2021/04/23 07:58:19;;;;;;;16.17;6.15;;;11.60;75.30;;;;;;5052286;28;20025;-82
2021/04/23 08:00:45;;;;;;;10.30;5.10;;;11.70;74.80;;;;;;5053770;28;20055;-82
2021/04/23 08:03:11;;;;;;;11.02;6.03;;;11.80;73.30;;;;;;5055613;28;20049;-83
2021/04/23 08:05:36;;;;;;;11.50;5.75;;;11.80;69.80;;;;;;5056606;28;20031;-82
2021/04/23 08:08:03;;;;;;;11.00;5.40;;;11.80;71.20;;;;;;5056360;28;20021;-82
2021/04/23 08:10:29;;;;;;;12.40;5.05;;;11.80;70.40;;;;;;5056225;28;20522;-85
2021/04/23 08:12:55;;;;;;;11.68;5.68;;;11.90;71.50;;;;;;5056419;28;20029;-84
2021/04/23 08:15:25;;;;;;;11.60;5.00;;;11.70;66.90;;;;;;5056432;28;20021;-84
2021/04/23 08:17:52;;;;;;;14.55;5.80;;;11.70;70.10;;;;;;5056312;28;20353;-84
2021/04/23 08:20:19;;;;;;;10.35;5.32;;;11.80;73.10;;;;;;5056383;28;20075;-81
2021/04/23 08:22:45;;;;;;;13.85;5.40;;;12.10;72.70;;;;;;5055298;28;20037;-82
2021/04/23 08:25:12;;;;;;;10.15;5.50;;;12.30;73.50;;;;;;5055313;28;20456;-81
2021/04/23 08:27:38;;;;;;;16.17;6.13;;;12.40;73.90;;;;;;5055548;28;20468;-81
2021/04/23 08:30:06;;;;;;;9.98;5.45;;;12.60;72.00;;;;;;5056270;28;20029;-81
2021/04/23 08:32:31;;;;;;;13.48;6.15;;;12.70;74.20;;;;;;5055074;28;20035;-82
2021/04/23 08:34:57;;;;;;;12.05;5.93;;;12.90;71.40;;;;;;5054426;28;20020;-82
2021/04/23 08:37:23;;;;;;;13.73;5.38;;;13.00;70.50;;;;;;5054104;28;20029;-80
2021/04/23 08:39:48;;;;;;;13.07;5.55;;;13.30;82.60;;;;;;5055373;28;20491;-81
2021/04/23 08:42:14;;;;;;;11.82;6.07;;;13.40;78.60;;;;;;5055027;28;20039;-84
2021/04/23 08:44:40;;;;;;;9.07;5.32;;;13.60;72.90;;;;;;5056613;28;20032;-81
2021/04/23 08:47:08;;;;;;;13.68;5.57;;;13.60;74.30;;;;;;5057287;28;20061;-82
2021/04/23 08:49:36;;;;;;;9.93;5.63;;;13.60;72.60;;;;;;5055306;28;20372;-82
2021/04/23 08:52:03;;;;;;;10.55;5.85;;;13.50;69.90;;;;;;5055134;28;20025;-82
2021/04/23 08:54:29;;;;;;;10.65;5.75;;;13.60;72.30;;;;;;5055309;28;20427;-82
2021/04/23 08:56:55;;;;;;;11.48;5.72;;;13.80;65.60;;;;;;5054600;28;20025;-85
2021/04/23 08:59:21;;;;;;;12.80;6.10;;;13.80;68.70;;;;;;5054722;28;20056;-80
2021/04/23 09:01:46;;;;;;;10.23;5.88;;;13.90;70.40;;;;;;5054097;28;20096;-80
2021/04/23 09:04:12;;;;;;;14.48;5.60;;;13.90;69.10;;;;;;5055010;28;20078;-82
2021/04/23 09:06:39;;;;;;;11.20;6.05;;;14.00;70.10;;;;;;5055087;28;20376;-80
2021/04/23 09:09:12;;;;;;;14.30;5.82;;;14.00;70.20;;;;;;5054235;28;20025;-81
2021/04/23 09:11:44;;;;;;;10.75;6.00;;;14.00;68.70;;;;;;5054297;28;20024;-81
2021/04/23 09:14:12;;;;;;;10.50;5.68;;;14.00;68.00;;;;;;5052969;28;20171;-81
2021/04/23 09:16:44;;;;;;;10.82;5.80;;;14.00;63.70;;;;;;5053298;28;20021;-81
2021/04/23 09:19:27;;;;;;;10.73;5.03;;;13.80;64.60;;;;;;5053372;28;20021;-82
2021/04/23 09:22:19;;;;;;;9.68;5.80;;;14.00;60.50;;;;;;5053216;28;20055;-83
2021/04/23 09:24:53;;;;;;;10.50;5.50;;;14.00;66.00;;;;;;5053526;28;20049;-82
2021/04/23 09:27:22;;;;;;;14.20;6.15;;;13.90;64.10;;;;;;5054299;28;20062;-82
2021/04/23 09:29:51;;;;;;;10.30;5.80;;;13.90;61.70;;;;;;5053901;28;20033;-83
2021/04/23 09:32:27;;;;;;;10.07;6.20;;;14.00;62.20;;;;;;5054542;28;20058;-85
2021/04/23 09:34:55;;;;;;;9.73;5.38;;;14.00;64.70;;;;;;5054186;28;20029;-83
2021/04/23 09:37:23;;;;;;;11.88;5.63;;;14.10;64.00;;;;;;5053602;28;20013;-84
2021/04/23 09:39:53;;;;;;;11.63;5.20;;;14.20;59.10;;;;;;5053623;28;20040;-83
2021/04/23 09:42:20;;;;;;;10.57;5.65;;;14.20;60.80;;;;;;5053816;28;20070;-83
2021/04/23 09:44:48;;;;;;;10.45;5.88;;;14.30;61.30;;;;;;5053358;28;20021;-85
2021/04/23 09:47:22;;;;;;;10.60;5.22;;;14.40;60.50;;;;;;5052880;28;20031;-84
2021/04/23 09:49:57;;;;;;;13.95;5.93;;;14.20;58.40;;;;;;5052912;28;20028;-82
2021/04/23 09:52:24;;;;;;;10.85;5.45;;;14.20;58.30;;;;;;5053070;28;20537;-85
2021/04/23 09:54:52;;;;;;;8.27;5.15;;;14.30;59.60;;;;;;5052933;28;20029;-84
2021/04/23 09:57:21;;;;;;;10.20;5.65;;;14.40;59.50;;;;;;5052768;28;20041;-86
2021/04/23 09:59:49;;;;;;;10.32;5.53;;;14.50;61.70;;;;;;5053150;28;20035;-86
2021/04/23 10:02:16;;;;;;;9.05;5.55;;;14.50;59.90;;;;;;5052595;28;20060;-83
2021/04/23 10:04:42;;;;;;;10.70;6.25;;;14.20;61.20;;;;;;5052858;28;20025;-84
2021/04/23 10:07:12;;;;;;;9.02;5.25;;;14.00;59.80;;;;;;5053035;28;20071;-81
2021/04/23 10:10:05;;;;;;;9.65;5.75;;;14.10;60.40;;;;;;5052717;28;20415;-82
2021/04/23 10:12:43;;;;;;;12.23;6.38;;;14.20;61.20;;;;;;5053227;28;20036;-89
2021/04/23 10:15:19;;;;;;;10.13;5.55;;;14.20;59.00;;;;;;5052676;28;20103;-83
2021/04/23 10:17:59;;;;;;;14.98;6.10;;;14.40;56.90;;;;;;5052609;28;20029;-84
2021/04/23 10:20:29;;;;;;;13.10;5.85;;;14.50;58.30;;;;;;5052438;28;20029;-83
2021/04/23 10:22:57;;;;;;;10.85;5.85;;;14.70;58.50;;;;;;5052320;28;20043;-83
2021/04/23 10:25:24;;;;;;;11.40;6.28;;;14.90;57.50;;;;;;5051319;28;20075;-81
2021/04/23 10:27:52;;;;;;;12.82;5.38;;;14.90;56.30;;;;;;5052323;28;20515;-82
2021/04/23 10:30:29;;;;;;;10.80;5.85;;;15.10;56.80;;;;;;5052153;28;20009;-80
2021/04/23 10:32:57;;;;;;;10.48;5.60;;;15.40;58.50;;;;;;5052184;28;20120;-84
2021/04/23 10:35:24;;;;;;;14.20;5.85;;;15.40;57.00;;;;;;5051900;28;20051;-82
2021/04/23 10:37:50;;;;;;;9.68;5.13;;;15.40;59.50;;;;;;5051969;28;20063;-85
2021/04/23 10:40:19;;;;;;;9.38;5.10;;;15.30;56.40;;;;;;5052035;28;20031;-82
2021/04/23 10:42:55;;;;;;;9.52;5.40;;;15.20;55.10;;;;;;5053013;28;20044;-84
2021/04/23 10:45:32;;;;;;;8.35;5.43;;;15.10;56.00;;;;;;5052462;28;20025;-83
2021/04/23 10:47:58;;;;;;;11.32;5.55;;;15.20;57.90;;;;;;5051922;28;20464;-82
2021/04/23 10:50:37;;;;;;;8.88;5.90;;;15.20;57.90;;;;;;5052258;28;20025;-85
2021/04/23 10:53:06;;;;;;;14.48;6.15;;;15.10;57.00;;;;;;5052306;28;20119;-84
2021/04/23 10:55:45;;;;;;;9.38;5.65;;;15.10;56.90;;;;;;5052060;28;20047;-83
2021/04/23 10:58:17;;;;;;;11.75;5.68;;;15.20;56.90;;;;;;5052062;28;20021;-86
2021/04/23 11:00:48;;;;;;;9.73;5.82;;;15.20;55.00;;;;;;5052034;28;20025;-84
2021/04/23 11:03:20;;;;;;;11.00;5.63;;;15.30;55.20;;;;;;5051217;28;20440;-84
2021/04/23 11:05:54;;;;;;;12.85;6.03;;;15.20;54.60;;;;;;5052565;28;20112;-85
2021/04/23 11:08:20;;;;;;;10.65;5.38;;;15.10;55.80;;;;;;5051767;28;20092;-86
2021/04/23 11:11:01;;;;;;;11.18;5.35;;;15.10;56.50;;;;;;5052083;28;20025;-83
2021/04/23 11:13:28;;;;;;;8.93;5.07;;;15.10;56.80;;;;;;5052981;28;20040;-84
2021/04/23 11:16:16;;;;;;;12.05;5.55;;;15.00;53.00;;;;;;5057600;28;20021;-81
2021/04/23 11:18:42;;;;;;;11.60;5.80;;;15.10;53.30;;;;;;5057055;28;20044;-84
2021/04/23 11:21:33;;;;;;;10.40;5.35;;;15.20;55.00;;;;;;5053275;28;20036;-85
2021/04/23 11:24:14;;;;;;;9.43;4.97;;;15.40;55.50;;;;;;5052358;28;20037;-82
2021/04/23 11:26:53;;;;;;;13.30;5.55;;;15.40;53.40;;;;;;5052611;28;20021;-82
2021/04/23 11:29:50;;;;;;;10.60;5.00;;;15.40;53.60;;;;;;5052097;28;20052;-85
2021/04/23 11:32:24;;;;;;;12.55;5.70;;;15.30;51.60;;;;;;5046631;28;20088;-84
2021/04/23 11:35:09;;;;;;;9.52;5.25;;;15.30;52.10;;;;;;5052168;28;20036;-84
2021/04/23 11:37:40;;;;;;;10.32;5.22;;;15.20;51.70;;;;;;5054270;28;20036;-82
2021/04/23 11:40:17;;;;;;;10.35;4.97;;;15.20;51.90;;;;;;5056224;28;20033;-83
2021/04/23 11:42:54;;;;;;;10.25;5.03;;;15.30;52.50;;;;;;5056485;28;20036;-84
2021/04/23 11:45:25;;;;;;;9.93;4.65;;;15.50;51.50;;;;;;5056599;28;20472;-83
2021/04/23 11:47:59;;;;;;;12.10;5.13;;;15.80;51.70;;;;;;5056559;28;20020;-84
2021/04/23 11:50:31;;;;;;;8.07;4.90;;;15.80;52.10;;;;;;5056295;28;20036;-84
2021/04/23 11:52:59;;;;;;;7.65;4.70;;;15.60;49.60;;;;;;5056290;28;20021;-83
2021/04/23 11:55:27;;;;;;;8.88;4.78;;;15.20;50.60;;;;;;5056514;28;20032;-83
2021/04/23 11:58:02;;;;;;;9.38;5.40;;;15.10;51.00;;;;;;5057498;28;20108;-83
2021/04/23 12:00:29;;;;;;;8.82;4.80;;;15.10;52.30;;;;;;5056420;28;20037;-85
2021/04/23 12:02:57;;;;;;;10.68;5.32;;;15.20;52.20;;;;;;5055695;28;20080;-85
2021/04/23 12:05:24;;;;;;;9.55;4.97;;;15.40;51.70;;;;;;5057380;28;20017;-85
2021/04/23 12:07:52;;;;;;;12.10;5.57;;;15.50;50.80;;;;;;5055818;28;20380;-82
2021/04/23 12:10:19;;;;;;;13.40;4.55;;;15.40;50.40;;;;;;5056009;28;20028;-83
2021/04/23 12:12:46;;;;;;;13.38;5.03;;;15.60;55.60;;;;;;5055749;28;20108;-84
2021/04/23 12:15:24;;;;;;;7.60;4.65;;;15.70;52.10;;;;;;5055873;28;20028;-87
2021/04/23 12:17:52;;;;;;;9.23;4.90;;;15.90;47.60;;;;;;5056342;28;20089;-84
2021/04/23 12:20:35;;;;;;;9.07;4.38;;;16.00;49.70;;;;;;5057077;28;20032;-84
2021/04/23 12:23:02;;;;;;;9.07;4.40;;;16.20;49.40;;;;;;5056954;28;20491;-86
2021/04/23 12:25:43;;;;;;;6.70;4.60;;;16.50;49.60;;;;;;5055701;28;20078;-84
2021/04/23 12:28:17;;;;;;;11.65;4.65;;;16.40;46.30;;;;;;5055702;28;20116;-85
2021/04/23 12:30:43;;;;;;;7.20;3.72;;;16.60;47.90;;;;;;5057104;28;20075;-84
2021/04/23 12:33:09;;;;;;;11.20;4.18;;;17.00;50.30;;;;;;5056535;28;20094;-87
2021/04/23 12:35:41;;;;;;;11.93;4.80;;;17.10;49.20;;;;;;5056415;28;20543;-85
2021/04/23 12:38:08;;;;;;;9.20;4.75;;;17.20;45.80;;;;;;5055892;28;20028;-84
2021/04/23 12:40:39;;;;;;;13.00;4.50;;;17.20;45.30;;;;;;5055512;28;20420;-83
2021/04/23 12:43:15;;;;;;;9.05;4.63;;;17.30;47.00;;;;;;5056619;28;20040;-84
2021/04/23 12:45:50;;;;;;;11.10;4.75;;;17.20;45.50;;;;;;5055371;28;20037;-84
2021/04/23 12:48:17;;;;;;;11.27;5.20;;;16.70;44.30;;;;;;5054222;28;20025;-83
2021/04/23 12:50:45;;;;;;;9.82;4.25;;;16.40;46.50;;;;;;5055661;28;20075;-86
2021/04/23 12:53:12;;;;;;;13.65;4.80;;;16.80;47.50;;;;;;5055087;28;20032;-83
2021/04/23 12:55:39;;;;;;;10.50;5.32;;;16.90;46.30;;;;;;5055048;28;20021;-86